Time;durP1;ratioP1;P1;durP2;ratioP2;P2;SDS_P1;SDS_P2;PMS_P1;PMS_P2;Temp;Humidity;BMP_temperature;BMP_pressure;BME280_temperature;BME280_humidity;BME280_pressure;Samples;Min_cycle;Max_cycle;Signal;HPM_P1;HPM_P2
2022/03/13 00:00:50;;;;;;;23.58;13.30;;;9.50;76.30;;;;;;5136581;27;20050;-79
2022/03/13 00:03:18;;;;;;;18.85;11.90;;;9.30;76.60;;;;;;5121272;27;20051;-79
2022/03/13 00:05:48;;;;;;;20.88;11.52;;;9.30;76.90;;;;;;5136568;27;20376;-79
2022/03/13 00:08:27;;;;;;;21.80;11.85;;;9.30;76.90;;;;;;5119863;27;20134;-79
2022/03/13 00:11:07;;;;;;;21.20;12.13;;;9.30;76.70;;;;;;5119225;27;20079;-79
2022/03/13 00:13:39;;;;;;;20.88;11.32;;;9.30;77.10;;;;;;5136611;27;20050;-79
2022/03/13 00:16:10;;;;;;;20.65;12.25;;;9.30;77.10;;;;;;5135985;27;20043;-79
2022/03/13 00:18:36;;;;;;;24.75;12.90;;;9.30;76.90;;;;;;5136311;27;20490;-79
2022/03/13 00:21:04;;;;;;;23.42;12.63;;;9.40;76.60;;;;;;5135974;27;20059;-79
2022/03/13 00:23:34;;;;;;;21.85;12.35;;;9.40;76.60;;;;;;5119084;27;20051;-79
2022/03/13 00:26:00;;;;;;;20.75;12.48;;;9.30;76.80;;;;;;5136156;27;20054;-79
2022/03/13 00:28:25;;;;;;;21.77;12.30;;;9.30;77.00;;;;;;5136039;27;20043;-80
2022/03/13 00:30:51;;;;;;;21.73;13.27;;;9.30;77.10;;;;;;5101571;27;20058;-79
2022/03/13 00:33:17;;;;;;;22.50;12.85;;;9.30;77.10;;;;;;5118597;27;20051;-79
2022/03/13 00:35:43;;;;;;;23.52;13.38;;;9.30;77.20;;;;;;5135911;27;20054;-79
2022/03/13 00:38:09;;;;;;;23.48;13.38;;;9.30;76.90;;;;;;5135987;27;20047;-79
2022/03/13 00:40:36;;;;;;;25.15;12.73;;;9.20;77.20;;;;;;5135770;27;20095;-79
2022/03/13 00:43:03;;;;;;;21.48;12.95;;;9.20;77.20;;;;;;5135966;27;20055;-79
2022/03/13 00:45:29;;;;;;;21.90;12.45;;;9.20;77.10;;;;;;5135386;27;20126;-79
2022/03/13 00:47:56;;;;;;;20.17;12.48;;;9.10;77.50;;;;;;5118826;27;20134;-79
2022/03/13 00:50:22;;;;;;;20.83;12.75;;;9.10;77.30;;;;;;5135524;27;20095;-79
2022/03/13 00:52:48;;;;;;;21.67;12.82;;;9.10;77.50;;;;;;5135831;27;20124;-79
2022/03/13 00:55:14;;;;;;;22.08;12.70;;;9.20;77.10;;;;;;5118192;27;20093;-79
2022/03/13 00:57:43;;;;;;;25.38;12.38;;;9.10;77.40;;;;;;5135570;27;20043;-79
2022/03/13 01:00:11;;;;;;;23.65;12.35;;;9.00;77.90;;;;;;5134393;27;20079;-79
2022/03/13 01:02:37;;;;;;;22.67;13.80;;;9.10;77.70;;;;;;5135115;27;20039;-79
2022/03/13 01:05:03;;;;;;;22.27;12.32;;;9.10;77.30;;;;;;5118265;27;20495;-79
2022/03/13 01:07:30;;;;;;;22.85;12.80;;;9.10;77.80;;;;;;5135052;27;20144;-79
2022/03/13 01:09:55;;;;;;;26.60;13.82;;;9.10;77.70;;;;;;5135608;27;20047;-79
2022/03/13 01:12:21;;;;;;;20.70;11.95;;;9.00;77.60;;;;;;5134944;27;20474;-80
2022/03/13 01:14:47;;;;;;;23.83;13.45;;;8.90;78.00;;;;;;5134677;27;20134;-79
2022/03/13 01:17:17;;;;;;;22.75;12.95;;;9.10;78.00;;;;;;5118079;27;20126;-79
2022/03/13 01:19:43;;;;;;;24.85;13.13;;;9.10;77.90;;;;;;5135224;27;20072;-79
2022/03/13 01:22:10;;;;;;;23.80;13.02;;;9.10;78.00;;;;;;5134972;27;20069;-79
2022/03/13 01:24:45;;;;;;;23.75;13.48;;;9.20;77.90;;;;;;5135371;27;20138;-79
2022/03/13 01:27:13;;;;;;;23.67;13.65;;;9.20;78.00;;;;;;5135274;27;20065;-79
2022/03/13 01:29:40;;;;;;;22.38;12.90;;;9.20;77.70;;;;;;5135061;27;20129;-79
2022/03/13 01:32:09;;;;;;;22.85;12.40;;;9.20;77.80;;;;;;5134546;27;20047;-80
2022/03/13 01:34:41;;;;;;;26.15;13.55;;;9.20;77.90;;;;;;5134772;27;20055;-79
2022/03/13 01:37:12;;;;;;;24.10;13.07;;;9.10;77.90;;;;;;5135018;27;20042;-79
2022/03/13 01:39:38;;;;;;;21.48;12.20;;;9.10;78.10;;;;;;5135204;27;20449;-79
2022/03/13 01:42:04;;;;;;;22.13;13.10;;;9.10;78.20;;;;;;5134712;27;20082;-79
2022/03/13 01:44:30;;;;;;;23.70;13.07;;;9.10;78.20;;;;;;5134183;27;20046;-79
2022/03/13 01:46:56;;;;;;;24.92;13.27;;;9.10;78.00;;;;;;5134169;27;20054;-79
2022/03/13 01:49:23;;;;;;;27.55;13.30;;;9.10;78.10;;;;;;5134342;27;20039;-80
2022/03/13 01:51:48;;;;;;;23.95;13.27;;;9.10;78.20;;;;;;5134258;27;20509;-79
2022/03/13 01:54:14;;;;;;;27.58;13.50;;;8.80;78.50;;;;;;5119547;27;20039;-79
2022/03/13 01:56:41;;;;;;;25.92;12.43;;;9.00;78.40;;;;;;5120533;27;20461;-79
2022/03/13 01:59:10;;;;;;;24.15;13.02;;;9.00;78.50;;;;;;5120489;27;20047;-79
2022/03/13 02:01:37;;;;;;;24.10;13.55;;;9.00;78.30;;;;;;5137422;27;20054;-79
2022/03/13 02:04:02;;;;;;;21.08;12.90;;;9.10;78.40;;;;;;5137809;27;20043;-79
2022/03/13 02:06:28;;;;;;;31.20;14.68;;;9.00;78.30;;;;;;5120280;27;20066;-79
2022/03/13 02:08:54;;;;;;;26.10;13.70;;;9.10;78.00;;;;;;5137520;27;20034;-79
2022/03/13 02:11:24;;;;;;;25.15;13.27;;;9.20;78.50;;;;;;5137690;27;20121;-79
2022/03/13 02:13:54;;;;;;;24.90;13.52;;;9.20;78.20;;;;;;5120468;27;20133;-79
2022/03/13 02:16:21;;;;;;;27.50;14.35;;;9.10;78.30;;;;;;5137078;27;20129;-79
2022/03/13 02:18:50;;;;;;;26.83;13.32;;;9.00;78.60;;;;;;5137424;27;20535;-79
2022/03/13 02:21:17;;;;;;;27.23;15.02;;;9.00;78.60;;;;;;5137737;27;20051;-79
2022/03/13 02:23:43;;;;;;;26.73;13.95;;;8.90;78.90;;;;;;5137091;27;20056;-79
2022/03/13 02:26:09;;;;;;;24.50;13.43;;;9.00;79.00;;;;;;5137486;27;20048;-79
2022/03/13 02:28:37;;;;;;;22.30;12.93;;;9.10;79.00;;;;;;5137347;27;20477;-79
2022/03/13 02:31:16;;;;;;;24.02;12.98;;;9.10;79.10;;;;;;5137110;27;20039;-79
2022/03/13 02:33:41;;;;;;;24.20;13.63;;;9.20;79.00;;;;;;5136992;27;20042;-79
2022/03/13 02:36:27;;;;;;;24.98;14.35;;;9.30;78.70;;;;;;5120062;27;20095;-80
2022/03/13 02:38:53;;;;;;;24.92;13.27;;;9.30;78.70;;;;;;5137327;27;20054;-79
2022/03/13 02:41:19;;;;;;;23.23;13.73;;;9.20;79.00;;;;;;5137264;27;20047;-80
2022/03/13 02:43:45;;;;;;;22.30;13.48;;;9.20;79.00;;;;;;5137170;27;20039;-79
2022/03/13 02:46:22;;;;;;;25.67;13.35;;;9.30;79.10;;;;;;5136376;27;20043;-79
2022/03/13 02:48:50;;;;;;;23.17;13.38;;;9.20;78.80;;;;;;5136905;27;20054;-79
2022/03/13 02:51:15;;;;;;;25.73;14.07;;;9.10;79.20;;;;;;5136954;27;20043;-79
2022/03/13 02:53:41;;;;;;;26.08;14.13;;;9.10;79.30;;;;;;5136794;27;20482;-80
2022/03/13 02:56:07;;;;;;;22.75;13.45;;;9.20;79.40;;;;;;5119361;27;20051;-79
2022/03/13 02:58:33;;;;;;;23.40;14.68;;;9.10;79.40;;;;;;5119941;27;20046;-80
2022/03/13 03:00:59;;;;;;;21.45;13.05;;;9.10;79.70;;;;;;5137469;27;20057;-79
2022/03/13 03:03:25;;;;;;;22.23;13.65;;;9.10;79.50;;;;;;5137454;27;20401;-80
2022/03/13 03:05:51;;;;;;;25.65;14.55;;;9.00;79.80;;;;;;5136913;27;20486;-79
2022/03/13 03:08:17;;;;;;;24.65;14.85;;;9.00;79.70;;;;;;5136981;27;20439;-79
2022/03/13 03:10:43;;;;;;;25.38;14.45;;;9.00;79.90;;;;;;5136834;27;20039;-79
2022/03/13 03:13:10;;;;;;;24.40;14.00;;;9.00;79.50;;;;;;5136809;27;20049;-79
2022/03/13 03:15:37;;;;;;;23.95;13.93;;;9.00;79.80;;;;;;5136414;27;20085;-79
2022/03/13 03:18:04;;;;;;;26.92;14.80;;;9.00;79.90;;;;;;5136822;27;20053;-80
2022/03/13 03:20:31;;;;;;;29.30;15.50;;;9.00;80.00;;;;;;5119619;27;20078;-79
2022/03/13 03:22:57;;;;;;;22.77;13.43;;;9.10;79.60;;;;;;5136854;27;20080;-79
2022/03/13 03:25:25;;;;;;;24.05;13.65;;;9.10;79.60;;;;;;5140433;27;20034;-79
2022/03/13 03:27:52;;;;;;;25.75;15.05;;;9.10;79.70;;;;;;5140719;27;20134;-79
2022/03/13 03:30:26;;;;;;;25.88;14.50;;;9.00;79.90;;;;;;5140371;27;20082;-80
2022/03/13 03:32:52;;;;;;;26.17;14.10;;;9.00;80.00;;;;;;5141044;27;20090;-80
2022/03/13 03:35:23;;;;;;;24.15;14.35;;;9.00;80.10;;;;;;5140422;27;20445;-80
2022/03/13 03:37:51;;;;;;;24.00;13.88;;;8.90;79.90;;;;;;5140304;27;20082;-79
2022/03/13 03:40:21;;;;;;;27.42;15.13;;;8.90;80.00;;;;;;5140536;27;20046;-80
2022/03/13 03:42:46;;;;;;;23.48;14.18;;;8.90;80.10;;;;;;5140442;27;20065;-79
2022/03/13 03:45:16;;;;;;;27.15;14.68;;;9.00;80.10;;;;;;5139675;27;20477;-80
2022/03/13 03:47:43;;;;;;;23.83;13.82;;;9.00;80.00;;;;;;5140801;27;20374;-80
2022/03/13 03:50:09;;;;;;;27.23;14.70;;;9.00;79.70;;;;;;5140348;27;20066;-79
2022/03/13 03:52:34;;;;;;;23.70;14.63;;;9.00;79.70;;;;;;5139905;27;20038;-79
2022/03/13 03:55:00;;;;;;;24.15;14.40;;;8.90;79.90;;;;;;5122867;27;20138;-80
2022/03/13 03:57:26;;;;;;;24.88;14.32;;;8.80;80.30;;;;;;5140144;27;20053;-80
2022/03/13 03:59:52;;;;;;;24.35;14.40;;;8.70;80.20;;;;;;5140114;27;20050;-80
2022/03/13 04:02:18;;;;;;;25.20;14.35;;;8.80;80.30;;;;;;5139868;27;20057;-80
2022/03/13 04:04:43;;;;;;;28.70;15.00;;;8.60;80.30;;;;;;5122911;27;20125;-79
2022/03/13 04:07:09;;;;;;;24.45;14.45;;;8.70;80.10;;;;;;5139917;27;20485;-79
2022/03/13 04:09:35;;;;;;;26.00;14.73;;;8.60;80.40;;;;;;5122378;27;20043;-79
2022/03/13 04:12:05;;;;;;;27.30;14.60;;;8.60;80.30;;;;;;5139356;27;20078;-79
2022/03/13 04:14:31;;;;;;;23.42;14.25;;;8.70;80.10;;;;;;5121910;27;20481;-80
2022/03/13 04:16:56;;;;;;;24.35;14.30;;;8.60;80.30;;;;;;5139811;27;20038;-79
2022/03/13 04:19:23;;;;;;;26.27;14.90;;;8.50;80.20;;;;;;5122357;27;20058;-80
2022/03/13 04:21:49;;;;;;;24.20;14.43;;;8.50;80.30;;;;;;5139745;27;20137;-79
2022/03/13 04:24:15;;;;;;;23.20;13.95;;;8.40;80.10;;;;;;5122503;27;20134;-80
2022/03/13 04:26:41;;;;;;;25.10;14.38;;;8.20;80.50;;;;;;5139532;27;20046;-79
2022/03/13 04:29:09;;;;;;;25.17;14.18;;;8.10;80.50;;;;;;5122553;27;20051;-79
2022/03/13 04:31:37;;;;;;;25.02;13.93;;;8.10;80.60;;;;;;5122553;27;20039;-80
2022/03/13 04:34:04;;;;;;;29.05;15.15;;;8.10;80.50;;;;;;5123189;27;20381;-79
2022/03/13 04:36:32;;;;;;;23.90;13.93;;;8.30;80.60;;;;;;5139457;27;20058;-80
2022/03/13 04:38:59;;;;;;;24.30;14.45;;;8.20;80.70;;;;;;5139359;27;20050;-79
2022/03/13 04:41:25;;;;;;;25.33;14.20;;;8.20;80.80;;;;;;5139365;27;20397;-81
2022/03/13 04:43:51;;;;;;;26.15;14.13;;;8.10;81.00;;;;;;5139492;27;20038;-79
2022/03/13 04:46:16;;;;;;;24.83;13.43;;;8.10;81.00;;;;;;5104761;27;20043;-79
2022/03/13 04:48:42;;;;;;;28.20;15.48;;;8.10;81.10;;;;;;5139054;27;20058;-80
2022/03/13 04:51:08;;;;;;;28.58;15.10;;;8.00;80.90;;;;;;5135799;27;20078;-82
2022/03/13 04:53:34;;;;;;;23.75;13.82;;;8.10;80.90;;;;;;5113059;27;20126;-79
2022/03/13 04:56:00;;;;;;;24.70;14.35;;;8.00;80.90;;;;;;5093802;28;20051;-79
2022/03/13 04:58:25;;;;;;;24.67;13.30;;;8.10;80.90;;;;;;5094626;28;20517;-79
2022/03/13 05:00:52;;;;;;;27.08;14.00;;;8.20;80.90;;;;;;5077471;28;20117;-79
2022/03/13 05:03:18;;;;;;;31.63;13.80;;;8.10;80.60;;;;;;5094484;28;20048;-79
2022/03/13 05:05:43;;;;;;;25.33;13.32;;;8.00;80.30;;;;;;5077468;28;20044;-79
2022/03/13 05:08:15;;;;;;;23.00;13.30;;;8.10;80.30;;;;;;5077262;28;20044;-79
2022/03/13 05:10:42;;;;;;;24.60;13.07;;;7.90;79.70;;;;;;5095187;28;20087;-78
2022/03/13 05:13:11;;;;;;;26.65;13.68;;;7.80;79.70;;;;;;5094250;28;20083;-79
2022/03/13 05:15:37;;;;;;;19.50;12.18;;;7.70;79.70;;;;;;5093767;28;20164;-79
2022/03/13 05:18:03;;;;;;;23.15;13.20;;;7.80;79.90;;;;;;5094253;28;20085;-79
2022/03/13 05:20:30;;;;;;;24.65;12.95;;;7.80;79.60;;;;;;5094188;28;20110;-79
2022/03/13 05:22:55;;;;;;;22.63;13.48;;;7.80;79.50;;;;;;5077254;28;20131;-79
2022/03/13 05:25:25;;;;;;;27.92;12.88;;;7.70;79.90;;;;;;5093955;28;20130;-79
2022/03/13 05:27:51;;;;;;;25.33;13.02;;;7.70;79.60;;;;;;5094012;28;20108;-79
2022/03/13 05:30:19;;;;;;;22.30;12.82;;;7.70;79.20;;;;;;5094020;28;20479;-79
2022/03/13 05:32:45;;;;;;;19.90;12.05;;;7.60;79.50;;;;;;5076945;28;20399;-79
2022/03/13 05:35:11;;;;;;;25.25;13.50;;;7.60;79.10;;;;;;5093902;28;20060;-80
2022/03/13 05:37:37;;;;;;;22.60;12.63;;;7.70;78.80;;;;;;5093819;28;20052;-80
2022/03/13 05:40:06;;;;;;;21.33;12.85;;;7.50;79.10;;;;;;5093765;28;20052;-79
2022/03/13 05:42:31;;;;;;;26.52;13.25;;;7.60;79.30;;;;;;5076767;28;20395;-79
2022/03/13 05:44:58;;;;;;;23.73;12.48;;;7.60;79.00;;;;;;5093423;28;20059;-79
2022/03/13 05:47:23;;;;;;;23.95;13.13;;;7.60;78.80;;;;;;5093056;28;20047;-79
2022/03/13 05:49:49;;;;;;;23.77;13.50;;;7.40;79.20;;;;;;5076730;28;20044;-79
2022/03/13 05:52:16;;;;;;;21.67;12.98;;;7.50;79.00;;;;;;5093295;28;20063;-79
2022/03/13 05:54:45;;;;;;;26.50;13.98;;;7.50;79.00;;;;;;5097752;28;20063;-79
2022/03/13 05:57:11;;;;;;;26.00;12.65;;;7.50;79.30;;;;;;5113896;28;20055;-79
2022/03/13 05:59:38;;;;;;;22.95;12.32;;;7.60;79.20;;;;;;5113781;28;20467;-79
2022/03/13 06:02:07;;;;;;;22.50;12.45;;;7.80;79.20;;;;;;5096817;28;20051;-80
2022/03/13 06:04:39;;;;;;;22.20;12.18;;;7.70;78.70;;;;;;5113719;28;20047;-79
2022/03/13 06:07:05;;;;;;;19.85;12.50;;;7.80;78.90;;;;;;5131270;27;20055;-79
2022/03/13 06:09:31;;;;;;;23.48;13.70;;;7.80;79.20;;;;;;5130746;27;20439;-80
2022/03/13 06:11:58;;;;;;;19.58;11.90;;;7.70;78.90;;;;;;5079677;28;20039;-79
2022/03/13 06:14:24;;;;;;;25.63;13.32;;;7.80;79.20;;;;;;5130329;27;20047;-80
2022/03/13 06:16:50;;;;;;;23.40;13.32;;;7.80;79.50;;;;;;5130643;27;20541;-79
2022/03/13 06:19:16;;;;;;;23.05;12.73;;;7.80;78.90;;;;;;5113469;28;20181;-79
2022/03/13 06:21:42;;;;;;;23.83;13.70;;;7.70;79.50;;;;;;5113451;28;20078;-79
2022/03/13 06:24:08;;;;;;;24.58;13.63;;;7.70;79.50;;;;;;5113212;28;20082;-79
2022/03/13 06:26:34;;;;;;;24.35;12.80;;;7.80;79.40;;;;;;5113386;28;20049;-79
2022/03/13 06:29:00;;;;;;;24.45;13.52;;;7.70;79.70;;;;;;5096277;28;20047;-79
2022/03/13 06:31:26;;;;;;;24.08;13.25;;;7.60;79.60;;;;;;5096194;28;20390;-79
2022/03/13 06:33:52;;;;;;;24.77;13.48;;;7.60;79.60;;;;;;5096442;28;20060;-80
2022/03/13 06:36:18;;;;;;;21.85;13.07;;;7.60;79.90;;;;;;5096395;28;20387;-80
2022/03/13 06:38:43;;;;;;;23.52;13.57;;;7.80;79.80;;;;;;5097011;28;20054;-80
2022/03/13 06:41:09;;;;;;;21.67;12.25;;;7.90;79.40;;;;;;5112911;28;20383;-80
2022/03/13 06:43:35;;;;;;;26.92;13.30;;;7.80;79.80;;;;;;5096252;28;20044;-79
2022/03/13 06:46:03;;;;;;;26.15;13.57;;;7.90;79.50;;;;;;5095850;28;20127;-79
2022/03/13 06:48:31;;;;;;;24.10;12.82;;;7.90;79.80;;;;;;5130263;28;20048;-79
2022/03/13 06:50:57;;;;;;;23.05;13.65;;;8.00;80.00;;;;;;5095979;28;20126;-79
2022/03/13 06:53:24;;;;;;;24.98;11.98;;;8.10;79.30;;;;;;5113129;28;20459;-79
2022/03/13 06:55:51;;;;;;;24.13;13.23;;;8.10;79.10;;;;;;5095933;28;20048;-79
2022/03/13 06:58:18;;;;;;;23.33;13.30;;;8.00;79.00;;;;;;5113837;28;20087;-79
2022/03/13 07:00:44;;;;;;;26.67;13.13;;;8.00;78.80;;;;;;5134465;27;20051;-80
2022/03/13 07:03:10;;;;;;;23.67;12.93;;;7.80;78.80;;;;;;5134403;27;20055;-79
2022/03/13 07:05:36;;;;;;;22.13;12.27;;;7.90;78.90;;;;;;5134386;27;20059;-79
2022/03/13 07:08:02;;;;;;;23.08;12.27;;;7.70;78.90;;;;;;5116849;28;20043;-79
2022/03/13 07:10:28;;;;;;;22.80;12.77;;;7.50;79.20;;;;;;5134216;27;20043;-79
2022/03/13 07:12:55;;;;;;;21.23;12.27;;;7.70;79.60;;;;;;5134263;27;20091;-79
2022/03/13 07:15:22;;;;;;;22.63;12.75;;;7.60;79.60;;;;;;5099562;28;20134;-79
2022/03/13 07:17:48;;;;;;;22.58;12.90;;;7.80;79.50;;;;;;5134083;27;20108;-79
2022/03/13 07:20:15;;;;;;;20.63;12.35;;;7.80;79.10;;;;;;5116867;28;20134;-79
2022/03/13 07:22:42;;;;;;;21.50;12.05;;;7.90;79.70;;;;;;5134012;27;20398;-79
2022/03/13 07:25:08;;;;;;;22.15;12.38;;;8.00;79.10;;;;;;5116769;28;20090;-79
2022/03/13 07:27:34;;;;;;;25.85;12.73;;;8.10;79.00;;;;;;5133889;27;20497;-79
2022/03/13 07:30:00;;;;;;;23.48;13.00;;;8.20;78.90;;;;;;5133970;27;20044;-79
2022/03/13 07:32:26;;;;;;;23.88;11.85;;;8.30;79.00;;;;;;5116404;28;20039;-79
2022/03/13 07:34:51;;;;;;;21.20;12.60;;;8.40;79.00;;;;;;5116708;28;20397;-79
2022/03/13 07:37:17;;;;;;;21.30;12.27;;;8.40;78.50;;;;;;5116612;28;20043;-79
2022/03/13 07:39:47;;;;;;;22.23;12.18;;;8.40;78.00;;;;;;5116457;28;20040;-79
2022/03/13 07:42:18;;;;;;;20.85;11.93;;;8.30;78.40;;;;;;5099994;28;20513;-79
2022/03/13 07:44:44;;;;;;;22.17;12.82;;;8.30;78.80;;;;;;5133347;27;20043;-79
2022/03/13 07:47:11;;;;;;;24.52;12.07;;;8.50;78.20;;;;;;5116444;28;20385;-79
2022/03/13 07:49:37;;;;;;;22.15;12.52;;;8.30;78.00;;;;;;5133454;27;20040;-79
2022/03/13 07:52:04;;;;;;;20.73;12.38;;;8.30;78.10;;;;;;5116012;28;20040;-79
2022/03/13 07:54:30;;;;;;;21.23;12.30;;;8.50;78.20;;;;;;5134904;27;20035;-80
2022/03/13 07:56:56;;;;;;;22.58;12.35;;;8.70;78.00;;;;;;5104579;27;20107;-80
2022/03/13 07:59:22;;;;;;;24.42;11.82;;;8.80;77.20;;;;;;5140227;27;20041;-79
2022/03/13 08:01:48;;;;;;;20.30;11.45;;;8.80;77.00;;;;;;5140097;27;20046;-79
2022/03/13 08:04:14;;;;;;;19.27;11.32;;;8.90;77.50;;;;;;5140079;27;20469;-79
2022/03/13 08:06:39;;;;;;;21.73;12.18;;;9.00;77.00;;;;;;5139998;27;20049;-79
2022/03/13 08:09:07;;;;;;;25.90;12.32;;;9.00;76.60;;;;;;5139301;27;20046;-79
2022/03/13 08:11:34;;;;;;;22.23;12.40;;;9.10;76.30;;;;;;5139670;27;20047;-79
2022/03/13 08:14:05;;;;;;;24.15;10.55;;;9.00;76.30;;;;;;5139883;27;20122;-79
2022/03/13 08:16:31;;;;;;;21.15;10.98;;;9.10;76.50;;;;;;5122211;27;20541;-79
2022/03/13 08:18:57;;;;;;;19.08;11.18;;;9.20;76.10;;;;;;5139798;27;20046;-80
2022/03/13 08:21:23;;;;;;;19.80;11.90;;;9.30;75.90;;;;;;5139612;27;20109;-82
2022/03/13 08:23:49;;;;;;;23.05;11.73;;;9.30;75.90;;;;;;5139707;27;20313;-82
2022/03/13 08:26:14;;;;;;;20.63;10.80;;;9.50;76.10;;;;;;5139690;27;20091;-84
2022/03/13 08:28:44;;;;;;;19.15;11.18;;;9.70;75.70;;;;;;5139779;27;20386;-81
2022/03/13 08:31:10;;;;;;;20.52;11.13;;;9.70;75.40;;;;;;5139106;27;20046;-82
2022/03/13 08:33:36;;;;;;;20.23;11.00;;;9.90;75.20;;;;;;5140811;27;20150;-79
2022/03/13 08:36:03;;;;;;;20.80;11.15;;;10.00;74.60;;;;;;5167654;27;20488;-82
2022/03/13 08:38:29;;;;;;;19.48;11.60;;;10.10;74.40;;;;;;5159293;27;20088;-76
2022/03/13 08:40:55;;;;;;;26.88;10.90;;;10.10;74.70;;;;;;5122210;27;20082;-77
2022/03/13 08:43:20;;;;;;;19.40;10.48;;;10.20;74.70;;;;;;5158012;27;20042;-76
2022/03/13 08:45:47;;;;;;;22.60;11.50;;;10.30;74.50;;;;;;5138818;27;20046;-77
2022/03/13 08:48:13;;;;;;;21.00;10.98;;;10.40;74.20;;;;;;5139202;27;20047;-76
2022/03/13 08:50:39;;;;;;;20.80;11.60;;;10.20;74.30;;;;;;5125836;27;20402;-78
2022/03/13 08:53:05;;;;;;;19.33;11.00;;;10.10;74.60;;;;;;5133171;27;20041;-77
2022/03/13 08:55:30;;;;;;;19.55;11.05;;;10.20;74.60;;;;;;5108837;27;20074;-78
2022/03/13 08:57:56;;;;;;;21.23;11.25;;;10.30;73.90;;;;;;5122841;27;20043;-77
2022/03/13 09:00:24;;;;;;;22.45;10.30;;;10.30;74.10;;;;;;5118220;27;20035;-77
2022/03/13 09:02:50;;;;;;;17.30;9.93;;;10.40;73.30;;;;;;5118611;27;20047;-82
2022/03/13 09:05:16;;;;;;;17.50;10.20;;;10.50;73.80;;;;;;5118357;27;20402;-81
2022/03/13 09:07:43;;;;;;;18.33;10.20;;;10.30;74.80;;;;;;5118274;27;20126;-81
2022/03/13 09:10:09;;;;;;;19.67;10.48;;;10.40;74.90;;;;;;5118188;27;20054;-81
2022/03/13 09:12:35;;;;;;;21.27;10.55;;;10.40;73.40;;;;;;5117615;27;20039;-81
2022/03/13 09:15:02;;;;;;;19.52;10.43;;;10.30;73.80;;;;;;5117740;27;20401;-81
2022/03/13 09:17:28;;;;;;;18.08;10.68;;;10.30;74.10;;;;;;5118050;27;20048;-77
2022/03/13 09:19:56;;;;;;;18.15;10.40;;;10.40;73.10;;;;;;5118200;27;20074;-78
2022/03/13 09:22:30;;;;;;;17.40;10.48;;;10.60;72.90;;;;;;5116223;27;20046;-80
2022/03/13 09:24:57;;;;;;;17.73;10.30;;;10.80;72.90;;;;;;5127851;27;20039;-77
2022/03/13 09:27:29;;;;;;;17.63;9.75;;;10.90;72.40;;;;;;5100628;27;20047;-78
2022/03/13 09:29:56;;;;;;;21.45;11.02;;;11.00;71.50;;;;;;5100583;27;20042;-78
2022/03/13 09:32:23;;;;;;;18.83;10.52;;;11.10;71.20;;;;;;5116804;27;20521;-79
2022/03/13 09:34:49;;;;;;;18.08;10.63;;;11.30;71.60;;;;;;5100477;27;20449;-79
2022/03/13 09:37:16;;;;;;;16.63;10.02;;;11.40;70.90;;;;;;5117277;27;20039;-77
2022/03/13 09:39:42;;;;;;;19.85;10.82;;;11.50;70.80;;;;;;5117193;27;20051;-78
2022/03/13 09:42:07;;;;;;;21.92;10.15;;;11.50;70.00;;;;;;5117781;27;20478;-77
2022/03/13 09:44:34;;;;;;;21.05;10.65;;;11.70;70.40;;;;;;5083580;27;20118;-82
2022/03/13 09:46:59;;;;;;;20.27;10.43;;;11.90;71.00;;;;;;5116878;27;20055;-77
2022/03/13 09:49:27;;;;;;;17.25;10.20;;;12.00;70.60;;;;;;5117807;27;20130;-75
2022/03/13 09:51:53;;;;;;;18.42;10.85;;;12.10;69.30;;;;;;5083161;27;20070;-78
2022/03/13 09:54:19;;;;;;;19.80;10.48;;;12.30;69.80;;;;;;5100267;27;20403;-79
2022/03/13 09:56:45;;;;;;;19.38;10.65;;;12.40;68.60;;;;;;5117264;27;20047;-78
2022/03/13 09:59:11;;;;;;;19.67;10.60;;;12.50;68.70;;;;;;5100381;27;20047;-78
2022/03/13 10:01:37;;;;;;;17.63;10.45;;;12.70;68.60;;;;;;5099943;27;20099;-78
2022/03/13 10:04:04;;;;;;;19.15;10.57;;;12.70;67.90;;;;;;5116974;27;20132;-78
2022/03/13 10:06:30;;;;;;;18.52;10.70;;;12.80;68.50;;;;;;5116991;27;20119;-78
2022/03/13 10:08:55;;;;;;;19.27;10.57;;;13.20;67.30;;;;;;5099736;27;20424;-78
2022/03/13 10:11:35;;;;;;;18.13;10.55;;;13.30;68.40;;;;;;5099756;27;20092;-78
2022/03/13 10:14:08;;;;;;;19.10;11.32;;;13.50;67.00;;;;;;5099583;27;20051;-77
2022/03/13 10:16:40;;;;;;;17.65;10.73;;;13.80;67.70;;;;;;5138834;27;20501;-80
2022/03/13 10:19:16;;;;;;;19.75;11.55;;;13.90;67.10;;;;;;5121245;27;20085;-76
2022/03/13 10:22:04;;;;;;;19.27;11.18;;;14.20;66.80;;;;;;5103055;27;20118;-79
2022/03/13 10:24:46;;;;;;;17.08;10.43;;;14.30;67.40;;;;;;5137218;27;20133;-79
2022/03/13 10:27:17;;;;;;;18.45;10.80;;;14.40;66.50;;;;;;5136992;27;20083;-79
2022/03/13 10:29:45;;;;;;;20.73;10.60;;;14.70;66.90;;;;;;5137195;27;20087;-82
2022/03/13 10:32:11;;;;;;;18.45;10.85;;;14.90;65.20;;;;;;5118595;27;20137;-81
2022/03/13 10:34:38;;;;;;;18.55;11.35;;;14.90;65.20;;;;;;5098221;27;20079;-79
2022/03/13 10:37:04;;;;;;;18.00;11.13;;;15.10;64.60;;;;;;5117120;27;20428;-87
2022/03/13 10:39:34;;;;;;;17.25;10.93;;;15.10;65.70;;;;;;5120156;27;20051;-84
2022/03/13 10:42:03;;;;;;;18.15;9.80;;;14.80;66.70;;;;;;5120314;27;20059;-86
2022/03/13 10:44:34;;;;;;;16.98;10.57;;;14.60;64.80;;;;;;5099601;27;20069;-84
2022/03/13 10:47:08;;;;;;;19.75;11.70;;;14.40;67.10;;;;;;5116193;28;20099;-81
2022/03/13 10:49:44;;;;;;;18.95;11.50;;;14.80;64.90;;;;;;5099798;28;20058;-82
2022/03/13 10:52:30;;;;;;;17.70;10.93;;;15.20;65.00;;;;;;5099816;28;20046;-81
2022/03/13 10:55:14;;;;;;;19.73;11.55;;;15.40;64.30;;;;;;5116447;28;20047;-82
2022/03/13 10:57:51;;;;;;;17.38;12.00;;;15.50;64.20;;;;;;5116552;28;20047;-81
2022/03/13 11:00:17;;;;;;;19.92;11.07;;;15.50;64.20;;;;;;5116770;28;20044;-81
2022/03/13 11:02:43;;;;;;;19.23;11.30;;;15.80;64.30;;;;;;5116580;28;20051;-82
2022/03/13 11:05:09;;;;;;;22.25;11.77;;;16.20;64.70;;;;;;5134593;28;20071;-82
2022/03/13 11:07:35;;;;;;;17.73;11.25;;;16.20;63.70;;;;;;5116529;28;20054;-82
2022/03/13 11:10:01;;;;;;;16.85;11.18;;;16.20;63.90;;;;;;5117111;28;20043;-82
2022/03/13 11:12:27;;;;;;;19.08;11.40;;;16.30;64.10;;;;;;5116108;28;20050;-82
2022/03/13 11:14:58;;;;;;;19.40;11.73;;;16.50;63.90;;;;;;5098795;28;20043;-82
2022/03/13 11:17:30;;;;;;;19.08;11.60;;;16.70;63.40;;;;;;5116073;28;20109;-82
2022/03/13 11:19:58;;;;;;;20.60;10.80;;;17.10;63.10;;;;;;5116003;28;20110;-81
2022/03/13 11:22:25;;;;;;;18.42;11.77;;;17.40;62.40;;;;;;5099316;28;20047;-82
2022/03/13 11:25:04;;;;;;;17.48;11.57;;;17.50;62.60;;;;;;5116265;28;20508;-81
2022/03/13 11:27:31;;;;;;;18.55;10.98;;;17.70;62.20;;;;;;5116292;28;20386;-81
2022/03/13 11:29:57;;;;;;;19.85;11.73;;;17.90;62.20;;;;;;5116178;28;20047;-81
2022/03/13 11:32:42;;;;;;;20.90;11.20;;;17.70;60.70;;;;;;5115601;28;20043;-82
2022/03/13 11:35:11;;;;;;;18.77;10.35;;;17.60;61.10;;;;;;5116574;28;20058;-82
2022/03/13 11:37:38;;;;;;;17.25;11.05;;;18.00;61.40;;;;;;5116154;28;20062;-82
2022/03/13 11:40:05;;;;;;;17.38;10.82;;;17.80;61.20;;;;;;5116077;28;20474;-81
2022/03/13 11:42:51;;;;;;;20.50;11.45;;;17.90;61.30;;;;;;5115824;28;20051;-82
2022/03/13 11:45:35;;;;;;;19.65;12.02;;;18.10;60.60;;;;;;5117628;27;20471;-81
2022/03/13 11:48:08;;;;;;;25.73;12.40;;;18.30;60.20;;;;;;5120092;27;20055;-80
2022/03/13 11:50:47;;;;;;;18.75;11.02;;;18.30;59.80;;;;;;5122970;27;20054;-81
2022/03/13 11:53:23;;;;;;;20.83;11.25;;;18.50;59.40;;;;;;5119727;27;20493;-80
2022/03/13 11:56:06;;;;;;;20.83;12.05;;;18.00;61.10;;;;;;5119063;27;20059;-80
2022/03/13 11:58:53;;;;;;;21.00;11.45;;;18.20;60.10;;;;;;5119938;27;20452;-80
2022/03/13 12:01:39;;;;;;;17.60;10.90;;;18.20;60.40;;;;;;5119351;27;20047;-80
2022/03/13 12:04:07;;;;;;;17.30;11.13;;;18.20;60.00;;;;;;5137005;27;20051;-81
2022/03/13 12:06:43;;;;;;;18.98;11.27;;;18.40;60.70;;;;;;5119495;27;20055;-81
2022/03/13 12:09:19;;;;;;;16.77;10.93;;;18.30;60.10;;;;;;5119448;27;20141;-81
2022/03/13 12:11:50;;;;;;;;;;;18.60;61.50;;;;;;5119792;27;20497;-82
2022/03/13 12:14:19;;;;;;;17.20;10.35;;;18.20;58.30;;;;;;5137734;27;19919;-81
2022/03/13 12:16:47;;;;;;;15.45;10.50;;;18.20;60.60;;;;;;5137455;27;20115;-81
2022/03/13 12:19:17;;;;;;;20.15;11.35;;;18.20;60.10;;;;;;5120042;27;20490;-81
2022/03/13 12:21:46;;;;;;;17.23;10.57;;;18.40;60.40;;;;;;5139902;27;20055;-81
2022/03/13 12:24:20;;;;;;;17.45;11.07;;;18.50;59.00;;;;;;5118901;27;20086;-81
2022/03/13 12:26:49;;;;;;;16.55;10.52;;;18.60;59.10;;;;;;5119081;27;20411;-75
2022/03/13 12:29:20;;;;;;;18.27;10.70;;;19.00;60.20;;;;;;5137162;27;20047;-81
2022/03/13 12:31:50;;;;;;;17.17;11.20;;;18.90;56.30;;;;;;5118889;27;20050;-81
2022/03/13 12:34:27;;;;;;;22.70;11.25;;;18.80;57.20;;;;;;5119256;27;20054;-81
2022/03/13 12:36:53;;;;;;;19.67;11.60;;;18.70;58.70;;;;;;5136992;27;20490;-80